sensor_id;sensor_type;location;lat;lon;timestamp;P1;durP1;ratioP1;P2;durP2;ratioP2
11924;SDS011;6022;48.768;18.608;2023-07-16T00:00:37;2.80;;;2.60;;
11924;SDS011;6022;48.768;18.608;2023-07-16T00:03:04;3.87;;;3.10;;
11924;SDS011;6022;48.768;18.608;2023-07-16T00:05:40;3.07;;;2.77;;
11924;SDS011;6022;48.768;18.608;2023-07-16T00:08:09;3.00;;;2.80;;
11924;SDS011;6022;48.768;18.608;2023-07-16T00:10:37;2.47;;;2.33;;
11924;SDS011;6022;48.768;18.608;2023-07-16T00:13:04;4.30;;;2.50;;
11924;SDS011;6022;48.768;18.608;2023-07-16T00:15:32;8.07;;;3.23;;
11924;SDS011;6022;48.768;18.608;2023-07-16T00:17:59;4.77;;;3.03;;
11924;SDS011;6022;48.768;18.608;2023-07-16T00:20:27;2.77;;;2.53;;
11924;SDS011;6022;48.768;18.608;2023-07-16T00:22:54;3.90;;;3.07;;
11924;SDS011;6022;48.768;18.608;2023-07-16T00:25:26;3.90;;;3.13;;
11924;SDS011;6022;48.768;18.608;2023-07-16T00:27:55;3.57;;;3.27;;
11924;SDS011;6022;48.768;18.608;2023-07-16T00:30:24;3.20;;;2.90;;
11924;SDS011;6022;48.768;18.608;2023-07-16T00:32:51;4.17;;;3.13;;
11924;SDS011;6022;48.768;18.608;2023-07-16T00:35:18;2.73;;;2.53;;
11924;SDS011;6022;48.768;18.608;2023-07-16T00:37:46;3.90;;;2.83;;
11924;SDS011;6022;48.768;18.608;2023-07-16T00:40:16;2.93;;;2.73;;
11924;SDS011;6022;48.768;18.608;2023-07-16T00:42:43;3.33;;;3.00;;
11924;SDS011;6022;48.768;18.608;2023-07-16T00:45:13;2.70;;;2.50;;
11924;SDS011;6022;48.768;18.608;2023-07-16T00:47:41;4.77;;;3.40;;
11924;SDS011;6022;48.768;18.608;2023-07-16T00:50:13;3.97;;;3.33;;
11924;SDS011;6022;48.768;18.608;2023-07-16T00:52:41;3.10;;;2.80;;
11924;SDS011;6022;48.768;18.608;2023-07-16T00:55:11;3.20;;;2.90;;
11924;SDS011;6022;48.768;18.608;2023-07-16T00:57:42;3.40;;;3.10;;
11924;SDS011;6022;48.768;18.608;2023-07-16T01:00:22;13.07;;;2.97;;
11924;SDS011;6022;48.768;18.608;2023-07-16T01:02:50;4.40;;;3.30;;
11924;SDS011;6022;48.768;18.608;2023-07-16T01:05:20;3.47;;;3.17;;
11924;SDS011;6022;48.768;18.608;2023-07-16T01:07:53;2.77;;;2.57;;
11924;SDS011;6022;48.768;18.608;2023-07-16T01:10:26;2.77;;;2.47;;
11924;SDS011;6022;48.768;18.608;2023-07-16T01:12:57;3.03;;;2.73;;
11924;SDS011;6022;48.768;18.608;2023-07-16T01:15:26;3.30;;;3.03;;
11924;SDS011;6022;48.768;18.608;2023-07-16T01:17:53;3.77;;;3.47;;
11924;SDS011;6022;48.768;18.608;2023-07-16T01:20:22;3.83;;;3.53;;
11924;SDS011;6022;48.768;18.608;2023-07-16T01:23:02;3.77;;;3.47;;
11924;SDS011;6022;48.768;18.608;2023-07-16T01:26:02;3.97;;;3.50;;
11924;SDS011;6022;48.768;18.608;2023-07-16T01:31:39;3.40;;;3.10;;
11924;SDS011;6022;48.768;18.608;2023-07-16T01:34:08;3.60;;;3.30;;
11924;SDS011;6022;48.768;18.608;2023-07-16T01:36:38;3.80;;;3.40;;
11924;SDS011;6022;48.768;18.608;2023-07-16T01:39:06;4.03;;;3.20;;
11924;SDS011;6022;48.768;18.608;2023-07-16T01:41:33;3.70;;;3.30;;
11924;SDS011;6022;48.768;18.608;2023-07-16T01:44:00;4.57;;;3.50;;
11924;SDS011;6022;48.768;18.608;2023-07-16T01:46:28;3.43;;;3.03;;
11924;SDS011;6022;48.768;18.608;2023-07-16T01:48:56;4.00;;;3.37;;
11924;SDS011;6022;48.768;18.608;2023-07-16T01:51:23;3.60;;;3.30;;
11924;SDS011;6022;48.768;18.608;2023-07-16T01:53:50;4.00;;;3.60;;
11924;SDS011;6022;48.768;18.608;2023-07-16T01:56:17;3.60;;;3.30;;
11924;SDS011;6022;48.768;18.608;2023-07-16T01:58:46;4.00;;;3.70;;
11924;SDS011;6022;48.768;18.608;2023-07-16T02:01:13;3.80;;;3.50;;
11924;SDS011;6022;48.768;18.608;2023-07-16T02:03:49;4.07;;;3.43;;
11924;SDS011;6022;48.768;18.608;2023-07-16T02:06:28;3.77;;;3.47;;
11924;SDS011;6022;48.768;18.608;2023-07-16T02:09:04;3.03;;;2.77;;
11924;SDS011;6022;48.768;18.608;2023-07-16T02:11:36;3.87;;;3.37;;
11924;SDS011;6022;48.768;18.608;2023-07-16T02:14:04;4.67;;;4.00;;
11924;SDS011;6022;48.768;18.608;2023-07-16T02:16:31;3.83;;;3.47;;
11924;SDS011;6022;48.768;18.608;2023-07-16T02:18:59;4.33;;;3.93;;
11924;SDS011;6022;48.768;18.608;2023-07-16T02:21:26;3.83;;;3.53;;
11924;SDS011;6022;48.768;18.608;2023-07-16T02:24:02;4.37;;;3.97;;
11924;SDS011;6022;48.768;18.608;2023-07-16T02:26:32;3.70;;;3.40;;
11924;SDS011;6022;48.768;18.608;2023-07-16T02:29:02;4.27;;;3.73;;
11924;SDS011;6022;48.768;18.608;2023-07-16T02:31:29;4.03;;;3.73;;
11924;SDS011;6022;48.768;18.608;2023-07-16T02:33:58;4.23;;;3.23;;
11924;SDS011;6022;48.768;18.608;2023-07-16T02:36:25;8.20;;;3.90;;
11924;SDS011;6022;48.768;18.608;2023-07-16T02:38:52;4.10;;;3.70;;
11924;SDS011;6022;48.768;18.608;2023-07-16T02:41:21;4.30;;;3.90;;
11924;SDS011;6022;48.768;18.608;2023-07-16T02:43:58;3.63;;;3.33;;
11924;SDS011;6022;48.768;18.608;2023-07-16T02:46:27;4.33;;;3.93;;
11924;SDS011;6022;48.768;18.608;2023-07-16T02:48:58;4.37;;;3.80;;
11924;SDS011;6022;48.768;18.608;2023-07-16T02:51:32;4.50;;;3.80;;
11924;SDS011;6022;48.768;18.608;2023-07-16T02:54:09;3.60;;;3.30;;
11924;SDS011;6022;48.768;18.608;2023-07-16T02:56:38;6.33;;;3.73;;
11924;SDS011;6022;48.768;18.608;2023-07-16T02:59:06;3.87;;;3.10;;
11924;SDS011;6022;48.768;18.608;2023-07-16T03:01:35;4.00;;;3.67;;
11924;SDS011;6022;48.768;18.608;2023-07-16T03:04:02;3.83;;;3.53;;
11924;SDS011;6022;48.768;18.608;2023-07-16T03:06:33;4.00;;;3.70;;
11924;SDS011;6022;48.768;18.608;2023-07-16T03:09:00;4.43;;;4.03;;
11924;SDS011;6022;48.768;18.608;2023-07-16T03:11:34;3.87;;;3.47;;
11924;SDS011;6022;48.768;18.608;2023-07-16T03:14:01;4.00;;;3.57;;
11924;SDS011;6022;48.768;18.608;2023-07-16T03:16:31;3.70;;;3.40;;
11924;SDS011;6022;48.768;18.608;2023-07-16T03:18:58;4.43;;;4.03;;
11924;SDS011;6022;48.768;18.608;2023-07-16T03:21:29;4.43;;;4.13;;
11924;SDS011;6022;48.768;18.608;2023-07-16T03:23:58;4.10;;;3.70;;
11924;SDS011;6022;48.768;18.608;2023-07-16T03:26:25;4.30;;;3.90;;
11924;SDS011;6022;48.768;18.608;2023-07-16T03:28:53;4.17;;;3.77;;
11924;SDS011;6022;48.768;18.608;2023-07-16T03:31:23;3.97;;;3.60;;
11924;SDS011;6022;48.768;18.608;2023-07-16T03:34:00;3.73;;;3.43;;
11924;SDS011;6022;48.768;18.608;2023-07-16T03:36:28;3.70;;;3.40;;
11924;SDS011;6022;48.768;18.608;2023-07-16T03:38:55;4.07;;;3.67;;
11924;SDS011;6022;48.768;18.608;2023-07-16T03:41:22;3.60;;;3.30;;
11924;SDS011;6022;48.768;18.608;2023-07-16T03:43:52;3.27;;;2.97;;
11924;SDS011;6022;48.768;18.608;2023-07-16T03:46:25;4.53;;;4.13;;
11924;SDS011;6022;48.768;18.608;2023-07-16T03:48:53;5.13;;;3.77;;
11924;SDS011;6022;48.768;18.608;2023-07-16T03:51:20;4.00;;;3.47;;
11924;SDS011;6022;48.768;18.608;2023-07-16T03:53:53;3.57;;;3.27;;
11924;SDS011;6022;48.768;18.608;2023-07-16T03:56:21;6.30;;;3.60;;
11924;SDS011;6022;48.768;18.608;2023-07-16T03:58:50;3.57;;;3.27;;
11924;SDS011;6022;48.768;18.608;2023-07-16T04:01:17;4.70;;;3.57;;
11924;SDS011;6022;48.768;18.608;2023-07-16T04:03:45;4.07;;;3.77;;
11924;SDS011;6022;48.768;18.608;2023-07-16T04:06:12;8.50;;;3.87;;
11924;SDS011;6022;48.768;18.608;2023-07-16T04:08:40;3.97;;;3.57;;
11924;SDS011;6022;48.768;18.608;2023-07-16T04:11:12;4.40;;;3.60;;
11924;SDS011;6022;48.768;18.608;2023-07-16T04:13:39;4.27;;;3.87;;
11924;SDS011;6022;48.768;18.608;2023-07-16T04:16:07;4.23;;;3.57;;
11924;SDS011;6022;48.768;18.608;2023-07-16T04:18:36;3.90;;;3.60;;
11924;SDS011;6022;48.768;18.608;2023-07-16T04:21:05;6.40;;;3.73;;
11924;SDS011;6022;48.768;18.608;2023-07-16T04:23:32;3.60;;;3.30;;
11924;SDS011;6022;48.768;18.608;2023-07-16T04:25:59;6.03;;;3.37;;
11924;SDS011;6022;48.768;18.608;2023-07-16T04:28:26;4.83;;;3.03;;
11924;SDS011;6022;48.768;18.608;2023-07-16T04:30:53;3.57;;;3.27;;
11924;SDS011;6022;48.768;18.608;2023-07-16T04:33:21;3.57;;;3.27;;
11924;SDS011;6022;48.768;18.608;2023-07-16T04:35:48;3.80;;;3.50;;
11924;SDS011;6022;48.768;18.608;2023-07-16T04:38:16;5.37;;;3.77;;
11924;SDS011;6022;48.768;18.608;2023-07-16T04:40:44;4.20;;;3.83;;
11924;SDS011;6022;48.768;18.608;2023-07-16T04:43:11;3.00;;;2.80;;
11924;SDS011;6022;48.768;18.608;2023-07-16T04:45:38;3.50;;;3.20;;
11924;SDS011;6022;48.768;18.608;2023-07-16T04:48:06;4.10;;;3.80;;
11924;SDS011;6022;48.768;18.608;2023-07-16T04:50:35;4.87;;;3.67;;
11924;SDS011;6022;48.768;18.608;2023-07-16T04:53:03;3.90;;;3.53;;
11924;SDS011;6022;48.768;18.608;2023-07-16T05:00:21;3.40;;;3.10;;
11924;SDS011;6022;48.768;18.608;2023-07-16T05:02:51;2.57;;;2.47;;
11924;SDS011;6022;48.768;18.608;2023-07-16T05:05:27;2.27;;;2.17;;
11924;SDS011;6022;48.768;18.608;2023-07-16T05:07:54;3.77;;;2.57;;
11924;SDS011;6022;48.768;18.608;2023-07-16T05:10:25;2.90;;;2.70;;
11924;SDS011;6022;48.768;18.608;2023-07-16T05:12:55;2.77;;;2.57;;
11924;SDS011;6022;48.768;18.608;2023-07-16T05:15:22;2.67;;;2.47;;
11924;SDS011;6022;48.768;18.608;2023-07-16T05:17:52;2.60;;;2.23;;
11924;SDS011;6022;48.768;18.608;2023-07-16T05:20:22;2.73;;;2.43;;
11924;SDS011;6022;48.768;18.608;2023-07-16T05:22:52;5.17;;;3.87;;
11924;SDS011;6022;48.768;18.608;2023-07-16T05:25:20;2.63;;;2.43;;
11924;SDS011;6022;48.768;18.608;2023-07-16T05:27:53;2.70;;;2.43;;
11924;SDS011;6022;48.768;18.608;2023-07-16T05:30:24;3.17;;;2.90;;
11924;SDS011;6022;48.768;18.608;2023-07-16T05:32:51;3.20;;;2.90;;
11924;SDS011;6022;48.768;18.608;2023-07-16T05:35:21;2.50;;;2.30;;
11924;SDS011;6022;48.768;18.608;2023-07-16T05:37:51;2.40;;;2.30;;
11924;SDS011;6022;48.768;18.608;2023-07-16T05:40:21;2.30;;;2.10;;
11924;SDS011;6022;48.768;18.608;2023-07-16T05:42:55;2.40;;;2.20;;
11924;SDS011;6022;48.768;18.608;2023-07-16T05:45:25;2.97;;;2.30;;
11924;SDS011;6022;48.768;18.608;2023-07-16T05:47:52;2.90;;;2.70;;
11924;SDS011;6022;48.768;18.608;2023-07-16T05:50:23;2.73;;;2.30;;
11924;SDS011;6022;48.768;18.608;2023-07-16T05:52:55;2.27;;;2.17;;
11924;SDS011;6022;48.768;18.608;2023-07-16T05:55:25;3.40;;;2.17;;
11924;SDS011;6022;48.768;18.608;2023-07-16T05:58:01;5.57;;;2.30;;
11924;SDS011;6022;48.768;18.608;2023-07-16T06:00:34;1.90;;;1.80;;
11924;SDS011;6022;48.768;18.608;2023-07-16T06:03:03;2.80;;;2.60;;
11924;SDS011;6022;48.768;18.608;2023-07-16T06:05:31;2.30;;;1.93;;
11924;SDS011;6022;48.768;18.608;2023-07-16T06:08:05;2.13;;;2.03;;
11924;SDS011;6022;48.768;18.608;2023-07-16T06:10:36;2.40;;;2.20;;
11924;SDS011;6022;48.768;18.608;2023-07-16T06:13:11;2.58;;;2.38;;
11924;SDS011;6022;48.768;18.608;2023-07-16T06:18:50;2.35;;;2.25;;
11924;SDS011;6022;48.768;18.608;2023-07-16T06:21:18;3.38;;;2.20;;
11924;SDS011;6022;48.768;18.608;2023-07-16T06:23:59;2.60;;;2.40;;
11924;SDS011;6022;48.768;18.608;2023-07-16T06:26:43;2.58;;;2.47;;
11924;SDS011;6022;48.768;18.608;2023-07-16T06:30:17;3.15;;;2.53;;
11924;SDS011;6022;48.768;18.608;2023-07-16T06:32:47;3.85;;;2.63;;
11924;SDS011;6022;48.768;18.608;2023-07-16T06:35:27;3.90;;;3.45;;
11924;SDS011;6022;48.768;18.608;2023-07-16T06:38:01;2.63;;;2.45;;
11924;SDS011;6022;48.768;18.608;2023-07-16T06:40:34;5.72;;;5.13;;
11924;SDS011;6022;48.768;18.608;2023-07-16T06:43:03;3.60;;;3.30;;
11924;SDS011;6022;48.768;18.608;2023-07-16T06:45:35;3.70;;;2.72;;
11924;SDS011;6022;48.768;18.608;2023-07-16T06:48:24;3.23;;;3.00;;
11924;SDS011;6022;48.768;18.608;2023-07-16T06:50:58;3.23;;;3.00;;
11924;SDS011;6022;48.768;18.608;2023-07-16T06:53:25;4.47;;;3.43;;
11924;SDS011;6022;48.768;18.608;2023-07-16T06:55:59;2.63;;;2.43;;
11924;SDS011;6022;48.768;18.608;2023-07-16T06:58:32;4.70;;;2.63;;
11924;SDS011;6022;48.768;18.608;2023-07-16T07:01:13;3.00;;;2.70;;
11924;SDS011;6022;48.768;18.608;2023-07-16T07:03:55;10.10;;;3.57;;
11924;SDS011;6022;48.768;18.608;2023-07-16T07:06:27;3.20;;;2.90;;
11924;SDS011;6022;48.768;18.608;2023-07-16T07:08:57;3.37;;;2.87;;
11924;SDS011;6022;48.768;18.608;2023-07-16T07:11:27;3.23;;;3.00;;
11924;SDS011;6022;48.768;18.608;2023-07-16T07:14:02;3.90;;;2.77;;
11924;SDS011;6022;48.768;18.608;2023-07-16T07:16:36;3.10;;;2.90;;
11924;SDS011;6022;48.768;18.608;2023-07-16T07:19:20;3.83;;;2.97;;
11924;SDS011;6022;48.768;18.608;2023-07-16T07:21:51;2.80;;;2.60;;
11924;SDS011;6022;48.768;18.608;2023-07-16T07:24:19;2.87;;;2.67;;
11924;SDS011;6022;48.768;18.608;2023-07-16T07:27:00;3.33;;;3.03;;
11924;SDS011;6022;48.768;18.608;2023-07-16T07:29:32;3.40;;;3.10;;
11924;SDS011;6022;48.768;18.608;2023-07-16T07:31:59;3.23;;;3.03;;
11924;SDS011;6022;48.768;18.608;2023-07-16T07:34:26;3.40;;;3.03;;
11924;SDS011;6022;48.768;18.608;2023-07-16T07:36:56;3.20;;;2.90;;
11924;SDS011;6022;48.768;18.608;2023-07-16T07:39:34;3.70;;;3.00;;
11924;SDS011;6022;48.768;18.608;2023-07-16T07:42:09;3.47;;;3.27;;
11924;SDS011;6022;48.768;18.608;2023-07-16T07:44:36;4.20;;;3.07;;
11924;SDS011;6022;48.768;18.608;2023-07-16T07:47:04;5.60;;;4.23;;
11924;SDS011;6022;48.768;18.608;2023-07-16T07:49:35;9.33;;;4.40;;
11924;SDS011;6022;48.768;18.608;2023-07-16T07:52:07;4.00;;;3.70;;
11924;SDS011;6022;48.768;18.608;2023-07-16T07:54:39;4.60;;;4.30;;
11924;SDS011;6022;48.768;18.608;2023-07-16T07:57:09;4.00;;;3.70;;
11924;SDS011;6022;48.768;18.608;2023-07-16T07:59:43;5.35;;;4.03;;
11924;SDS011;6022;48.768;18.608;2023-07-16T08:02:13;4.90;;;4.38;;
11924;SDS011;6022;48.768;18.608;2023-07-16T08:04:42;4.57;;;4.18;;
11924;SDS011;6022;48.768;18.608;2023-07-16T08:07:11;5.75;;;4.07;;
11924;SDS011;6022;48.768;18.608;2023-07-16T08:09:38;3.90;;;3.60;;
11924;SDS011;6022;48.768;18.608;2023-07-16T08:12:08;8.05;;;4.63;;
11924;SDS011;6022;48.768;18.608;2023-07-16T08:14:38;4.32;;;3.97;;
11924;SDS011;6022;48.768;18.608;2023-07-16T08:17:11;4.57;;;4.18;;
11924;SDS011;6022;48.768;18.608;2023-07-16T08:19:40;5.05;;;4.57;;
11924;SDS011;6022;48.768;18.608;2023-07-16T08:22:11;6.13;;;4.70;;
11924;SDS011;6022;48.768;18.608;2023-07-16T08:24:46;4.65;;;4.25;;
11924;SDS011;6022;48.768;18.608;2023-07-16T08:27:14;4.57;;;4.18;;
11924;SDS011;6022;48.768;18.608;2023-07-16T08:29:46;4.53;;;4.13;;
11924;SDS011;6022;48.768;18.608;2023-07-16T08:32:14;4.60;;;4.20;;
11924;SDS011;6022;48.768;18.608;2023-07-16T08:35:24;5.22;;;4.32;;
11924;SDS011;6022;48.768;18.608;2023-07-16T08:37:52;4.43;;;4.03;;
11924;SDS011;6022;48.768;18.608;2023-07-16T08:40:19;4.43;;;4.03;;
11924;SDS011;6022;48.768;18.608;2023-07-16T08:42:49;5.40;;;4.88;;
11924;SDS011;6022;48.768;18.608;2023-07-16T08:45:19;4.68;;;4.22;;
11924;SDS011;6022;48.768;18.608;2023-07-16T08:48:08;4.60;;;4.20;;
11924;SDS011;6022;48.768;18.608;2023-07-16T08:50:36;4.38;;;3.97;;
11924;SDS011;6022;48.768;18.608;2023-07-16T08:53:05;4.60;;;4.20;;
11924;SDS011;6022;48.768;18.608;2023-07-16T08:55:33;4.80;;;4.38;;
11924;SDS011;6022;48.768;18.608;2023-07-16T08:58:04;4.07;;;3.78;;
11924;SDS011;6022;48.768;18.608;2023-07-16T09:00:32;4.57;;;4.28;;
11924;SDS011;6022;48.768;18.608;2023-07-16T09:03:09;4.37;;;3.97;;
11924;SDS011;6022;48.768;18.608;2023-07-16T09:05:46;4.37;;;3.77;;
11924;SDS011;6022;48.768;18.608;2023-07-16T09:08:14;4.43;;;3.70;;
11924;SDS011;6022;48.768;18.608;2023-07-16T09:10:44;4.37;;;4.00;;
11924;SDS011;6022;48.768;18.608;2023-07-16T09:13:24;4.93;;;4.13;;
11924;SDS011;6022;48.768;18.608;2023-07-16T09:15:55;7.67;;;3.83;;
11924;SDS011;6022;48.768;18.608;2023-07-16T09:18:25;3.80;;;3.50;;
11924;SDS011;6022;48.768;18.608;2023-07-16T09:20:59;4.87;;;4.47;;
11924;SDS011;6022;48.768;18.608;2023-07-16T09:23:33;4.20;;;3.90;;
11924;SDS011;6022;48.768;18.608;2023-07-16T09:26:03;4.37;;;4.03;;
11924;SDS011;6022;48.768;18.608;2023-07-16T09:28:33;4.40;;;4.00;;
11924;SDS011;6022;48.768;18.608;2023-07-16T09:31:04;5.00;;;4.57;;
11924;SDS011;6022;48.768;18.608;2023-07-16T09:33:39;4.50;;;4.10;;
11924;SDS011;6022;48.768;18.608;2023-07-16T09:36:06;5.25;;;4.25;;
11924;SDS011;6022;48.768;18.608;2023-07-16T09:38:37;3.83;;;3.58;;
11924;SDS011;6022;48.768;18.608;2023-07-16T09:41:07;4.17;;;3.77;;
11924;SDS011;6022;48.768;18.608;2023-07-16T09:43:37;5.07;;;4.60;;
11924;SDS011;6022;48.768;18.608;2023-07-16T09:46:07;4.67;;;4.00;;
11924;SDS011;6022;48.768;18.608;2023-07-16T09:48:36;4.47;;;4.07;;
11924;SDS011;6022;48.768;18.608;2023-07-16T09:51:07;4.20;;;3.87;;
11924;SDS011;6022;48.768;18.608;2023-07-16T09:53:41;4.20;;;3.80;;
11924;SDS011;6022;48.768;18.608;2023-07-16T09:56:16;3.87;;;3.50;;
11924;SDS011;6022;48.768;18.608;2023-07-16T09:59:01;4.33;;;3.80;;
11924;SDS011;6022;48.768;18.608;2023-07-16T10:06:15;3.70;;;3.40;;
11924;SDS011;6022;48.768;18.608;2023-07-16T10:08:52;3.50;;;3.20;;
11924;SDS011;6022;48.768;18.608;2023-07-16T10:11:22;3.55;;;3.35;;
11924;SDS011;6022;48.768;18.608;2023-07-16T10:13:52;4.57;;;4.17;;
11924;SDS011;6022;48.768;18.608;2023-07-16T10:16:24;3.73;;;3.43;;
11924;SDS011;6022;48.768;18.608;2023-07-16T10:18:58;5.93;;;4.63;;
11924;SDS011;6022;48.768;18.608;2023-07-16T10:21:36;4.27;;;3.90;;
11924;SDS011;6022;48.768;18.608;2023-07-16T10:24:15;4.73;;;4.23;;
11924;SDS011;6022;48.768;18.608;2023-07-16T10:26:48;4.67;;;4.03;;
11924;SDS011;6022;48.768;18.608;2023-07-16T10:29:21;4.90;;;4.07;;
11924;SDS011;6022;48.768;18.608;2023-07-16T10:31:52;3.80;;;3.50;;
11924;SDS011;6022;48.768;18.608;2023-07-16T10:34:21;4.53;;;4.13;;
11924;SDS011;6022;48.768;18.608;2023-07-16T10:36:58;3.97;;;3.57;;
11924;SDS011;6022;48.768;18.608;2023-07-16T10:39:28;3.30;;;3.10;;
11924;SDS011;6022;48.768;18.608;2023-07-16T10:41:56;4.53;;;4.10;;
11924;SDS011;6022;48.768;18.608;2023-07-16T10:44:42;4.73;;;3.70;;
11924;SDS011;6022;48.768;18.608;2023-07-16T10:47:32;4.23;;;3.90;;
11924;SDS011;6022;48.768;18.608;2023-07-16T10:50:05;4.07;;;3.57;;
11924;SDS011;6022;48.768;18.608;2023-07-16T10:52:41;3.83;;;3.53;;
11924;SDS011;6022;48.768;18.608;2023-07-16T10:55:14;4.93;;;3.77;;
11924;SDS011;6022;48.768;18.608;2023-07-16T10:57:47;4.50;;;3.87;;
11924;SDS011;6022;48.768;18.608;2023-07-16T11:00:26;4.33;;;3.87;;
11924;SDS011;6022;48.768;18.608;2023-07-16T11:02:57;4.50;;;3.97;;
11924;SDS011;6022;48.768;18.608;2023-07-16T11:05:48;4.13;;;3.80;;
11924;SDS011;6022;48.768;18.608;2023-07-16T11:08:25;4.00;;;3.70;;
11924;SDS011;6022;48.768;18.608;2023-07-16T11:11:06;4.70;;;4.30;;
11924;SDS011;6022;48.768;18.608;2023-07-16T11:14:11;5.30;;;3.80;;
11924;SDS011;6022;48.768;18.608;2023-07-16T11:16:40;4.67;;;3.60;;
11924;SDS011;6022;48.768;18.608;2023-07-16T11:19:07;4.80;;;3.67;;
11924;SDS011;6022;48.768;18.608;2023-07-16T11:21:37;3.80;;;3.50;;
11924;SDS011;6022;48.768;18.608;2023-07-16T11:24:07;3.97;;;3.77;;
11924;SDS011;6022;48.768;18.608;2023-07-16T11:26:48;4.73;;;3.93;;
11924;SDS011;6022;48.768;18.608;2023-07-16T11:29:19;5.67;;;4.23;;
11924;SDS011;6022;48.768;18.608;2023-07-16T11:31:50;6.40;;;3.80;;
11924;SDS011;6022;48.768;18.608;2023-07-16T11:34:20;6.27;;;4.30;;
11924;SDS011;6022;48.768;18.608;2023-07-16T11:36:50;4.57;;;4.17;;
11924;SDS011;6022;48.768;18.608;2023-07-16T11:39:21;3.90;;;3.40;;
11924;SDS011;6022;48.768;18.608;2023-07-16T11:41:55;4.23;;;3.60;;
11924;SDS011;6022;48.768;18.608;2023-07-16T11:44:25;4.43;;;4.00;;
11924;SDS011;6022;48.768;18.608;2023-07-16T11:46:52;3.87;;;3.47;;
11924;SDS011;6022;48.768;18.608;2023-07-16T11:49:27;3.93;;;3.63;;
11924;SDS011;6022;48.768;18.608;2023-07-16T11:51:57;3.97;;;3.67;;
11924;SDS011;6022;48.768;18.608;2023-07-16T11:54:28;4.50;;;4.10;;
11924;SDS011;6022;48.768;18.608;2023-07-16T11:56:55;4.23;;;3.90;;
11924;SDS011;6022;48.768;18.608;2023-07-16T11:59:22;3.53;;;3.27;;
11924;SDS011;6022;48.768;18.608;2023-07-16T12:01:51;3.87;;;3.47;;
11924;SDS011;6022;48.768;18.608;2023-07-16T12:04:20;5.67;;;4.00;;
11924;SDS011;6022;48.768;18.608;2023-07-16T12:06:47;4.07;;;3.77;;
11924;SDS011;6022;48.768;18.608;2023-07-16T12:09:14;4.60;;;4.17;;
11924;SDS011;6022;48.768;18.608;2023-07-16T12:11:44;4.03;;;3.73;;
11924;SDS011;6022;48.768;18.608;2023-07-16T12:14:12;4.20;;;3.90;;
11924;SDS011;6022;48.768;18.608;2023-07-16T12:16:48;4.93;;;4.00;;
11924;SDS011;6022;48.768;18.608;2023-07-16T12:19:15;4.20;;;3.83;;
11924;SDS011;6022;48.768;18.608;2023-07-16T12:21:43;4.23;;;3.67;;
11924;SDS011;6022;48.768;18.608;2023-07-16T12:24:20;5.07;;;4.27;;
11924;SDS011;6022;48.768;18.608;2023-07-16T12:26:48;5.53;;;3.83;;
11924;SDS011;6022;48.768;18.608;2023-07-16T12:29:16;6.23;;;3.73;;
11924;SDS011;6022;48.768;18.608;2023-07-16T12:31:43;4.43;;;4.10;;
11924;SDS011;6022;48.768;18.608;2023-07-16T12:34:13;4.53;;;3.93;;
11924;SDS011;6022;48.768;18.608;2023-07-16T12:36:42;3.63;;;3.33;;
11924;SDS011;6022;48.768;18.608;2023-07-16T12:39:09;4.50;;;4.10;;
11924;SDS011;6022;48.768;18.608;2023-07-16T12:41:39;3.90;;;3.60;;
11924;SDS011;6022;48.768;18.608;2023-07-16T12:44:08;4.37;;;3.63;;
11924;SDS011;6022;48.768;18.608;2023-07-16T12:46:35;4.10;;;3.73;;
11924;SDS011;6022;48.768;18.608;2023-07-16T12:49:02;4.27;;;3.93;;
11924;SDS011;6022;48.768;18.608;2023-07-16T12:51:30;5.80;;;4.00;;
11924;SDS011;6022;48.768;18.608;2023-07-16T12:54:01;4.87;;;4.10;;
11924;SDS011;6022;48.768;18.608;2023-07-16T12:56:28;4.20;;;3.80;;
11924;SDS011;6022;48.768;18.608;2023-07-16T12:58:57;3.83;;;3.53;;
11924;SDS011;6022;48.768;18.608;2023-07-16T13:01:24;4.93;;;3.90;;
11924;SDS011;6022;48.768;18.608;2023-07-16T13:03:58;3.80;;;3.50;;
11924;SDS011;6022;48.768;18.608;2023-07-16T13:06:28;4.97;;;4.23;;
11924;SDS011;6022;48.768;18.608;2023-07-16T13:08:56;4.43;;;4.03;;
11924;SDS011;6022;48.768;18.608;2023-07-16T13:11:26;4.90;;;4.10;;
11924;SDS011;6022;48.768;18.608;2023-07-16T13:13:53;4.20;;;3.80;;
11924;SDS011;6022;48.768;18.608;2023-07-16T13:16:21;4.40;;;3.60;;
11924;SDS011;6022;48.768;18.608;2023-07-16T13:18:48;4.03;;;3.73;;
11924;SDS011;6022;48.768;18.608;2023-07-16T13:21:16;4.27;;;3.67;;
11924;SDS011;6022;48.768;18.608;2023-07-16T13:23:47;3.97;;;3.27;;
11924;SDS011;6022;48.768;18.608;2023-07-16T13:26:14;4.30;;;3.90;;
11924;SDS011;6022;48.768;18.608;2023-07-16T13:28:42;3.87;;;3.47;;
11924;SDS011;6022;48.768;18.608;2023-07-16T13:31:12;5.13;;;3.97;;
11924;SDS011;6022;48.768;18.608;2023-07-16T13:33:39;4.13;;;3.83;;
11924;SDS011;6022;48.768;18.608;2023-07-16T13:36:06;4.00;;;3.70;;
11924;SDS011;6022;48.768;18.608;2023-07-16T13:38:33;4.67;;;3.40;;
11924;SDS011;6022;48.768;18.608;2023-07-16T13:41:01;5.30;;;4.17;;
11924;SDS011;6022;48.768;18.608;2023-07-16T13:43:28;3.77;;;3.47;;
11924;SDS011;6022;48.768;18.608;2023-07-16T13:45:55;4.43;;;3.60;;
11924;SDS011;6022;48.768;18.608;2023-07-16T13:48:26;3.73;;;3.43;;
11924;SDS011;6022;48.768;18.608;2023-07-16T13:50:56;3.77;;;3.10;;
11924;SDS011;6022;48.768;18.608;2023-07-16T13:53:23;3.93;;;3.63;;
11924;SDS011;6022;48.768;18.608;2023-07-16T13:55:51;6.07;;;5.10;;
11924;SDS011;6022;48.768;18.608;2023-07-16T13:58:19;4.07;;;3.63;;
11924;SDS011;6022;48.768;18.608;2023-07-16T14:00:47;6.40;;;4.23;;
11924;SDS011;6022;48.768;18.608;2023-07-16T14:03:14;3.93;;;3.43;;
11924;SDS011;6022;48.768;18.608;2023-07-16T14:05:42;3.90;;;3.60;;
11924;SDS011;6022;48.768;18.608;2023-07-16T14:08:09;4.03;;;3.73;;
11924;SDS011;6022;48.768;18.608;2023-07-16T14:10:36;4.10;;;3.80;;
11924;SDS011;6022;48.768;18.608;2023-07-16T14:13:03;5.23;;;3.67;;
11924;SDS011;6022;48.768;18.608;2023-07-16T14:15:31;3.27;;;3.03;;
11924;SDS011;6022;48.768;18.608;2023-07-16T14:17:58;3.53;;;3.23;;
11924;SDS011;6022;48.768;18.608;2023-07-16T14:20:25;3.53;;;3.23;;
11924;SDS011;6022;48.768;18.608;2023-07-16T14:22:52;3.83;;;3.47;;
11924;SDS011;6022;48.768;18.608;2023-07-16T14:25:20;3.70;;;3.40;;
11924;SDS011;6022;48.768;18.608;2023-07-16T14:27:47;4.13;;;3.73;;
11924;SDS011;6022;48.768;18.608;2023-07-16T14:30:17;4.77;;;4.37;;
11924;SDS011;6022;48.768;18.608;2023-07-16T14:32:45;5.97;;;3.63;;
11924;SDS011;6022;48.768;18.608;2023-07-16T14:35:12;4.60;;;3.80;;
11924;SDS011;6022;48.768;18.608;2023-07-16T14:37:47;4.07;;;3.70;;
11924;SDS011;6022;48.768;18.608;2023-07-16T14:40:14;3.80;;;3.50;;
11924;SDS011;6022;48.768;18.608;2023-07-16T14:42:42;3.83;;;3.47;;
11924;SDS011;6022;48.768;18.608;2023-07-16T14:45:15;4.37;;;4.03;;
11924;SDS011;6022;48.768;18.608;2023-07-16T14:47:42;4.03;;;3.47;;
11924;SDS011;6022;48.768;18.608;2023-07-16T14:50:10;4.30;;;3.70;;
11924;SDS011;6022;48.768;18.608;2023-07-16T14:52:37;5.43;;;4.17;;
11924;SDS011;6022;48.768;18.608;2023-07-16T14:55:04;3.90;;;3.60;;
11924;SDS011;6022;48.768;18.608;2023-07-16T14:57:32;4.50;;;4.10;;
11924;SDS011;6022;48.768;18.608;2023-07-16T14:59:59;5.63;;;4.33;;
11924;SDS011;6022;48.768;18.608;2023-07-16T15:02:26;4.20;;;3.73;;
11924;SDS011;6022;48.768;18.608;2023-07-16T15:04:54;3.93;;;3.63;;
11924;SDS011;6022;48.768;18.608;2023-07-16T15:07:21;3.90;;;3.60;;
11924;SDS011;6022;48.768;18.608;2023-07-16T15:09:48;5.53;;;3.97;;
11924;SDS011;6022;48.768;18.608;2023-07-16T15:12:15;3.63;;;3.33;;
11924;SDS011;6022;48.768;18.608;2023-07-16T15:14:42;3.77;;;3.47;;
11924;SDS011;6022;48.768;18.608;2023-07-16T15:17:09;5.13;;;3.90;;
11924;SDS011;6022;48.768;18.608;2023-07-16T15:19:36;4.33;;;3.83;;
11924;SDS011;6022;48.768;18.608;2023-07-16T15:22:06;3.73;;;3.50;;
11924;SDS011;6022;48.768;18.608;2023-07-16T15:24:38;4.23;;;3.80;;